Time;durP1;ratioP1;P1;durP2;ratioP2;P2;SDS_P1;SDS_P2;PMS_P1;PMS_P2;Temp;Humidity;BMP_temperature;BMP_pressure;BME280_temperature;BME280_humidity;BME280_pressure;Samples;Min_cycle;Max_cycle;Signal;HPM_P1;HPM_P2
2020/12/16 00:00:43;;;;;;;26.98;19.33;;;7.30;99.90;;;;;;5067522;28;20218;-83
2020/12/16 00:03:10;;;;;;;27.40;19.50;;;7.30;99.90;;;;;;5067355;28;20199;-82
2020/12/16 00:05:36;;;;;;;30.75;20.70;;;7.30;99.90;;;;;;5066917;28;20692;-83
2020/12/16 00:08:03;;;;;;;26.77;20.10;;;7.30;99.90;;;;;;5067692;28;20203;-82
2020/12/16 00:10:29;;;;;;;30.08;20.27;;;7.30;99.90;;;;;;5067566;28;20207;-82
2020/12/16 00:12:56;;;;;;;27.20;19.25;;;7.30;99.90;;;;;;5067103;28;20264;-82
2020/12/16 00:15:22;;;;;;;26.73;19.40;;;7.30;99.90;;;;;;5067477;28;20556;-82
2020/12/16 00:17:49;;;;;;;31.63;19.77;;;7.30;99.90;;;;;;5067140;28;20306;-83
2020/12/16 00:20:16;;;;;;;27.13;18.90;;;7.30;99.90;;;;;;5066918;28;20294;-82
2020/12/16 00:22:43;;;;;;;25.30;18.17;;;7.30;99.90;;;;;;5066619;28;20669;-83
2020/12/16 00:25:10;;;;;;;26.48;20.23;;;7.30;99.90;;;;;;5066167;28;20203;-82
2020/12/16 00:27:38;;;;;;;29.70;21.17;;;7.40;99.90;;;;;;5066455;28;20230;-83
2020/12/16 00:30:05;;;;;;;28.63;19.52;;;7.30;99.90;;;;;;5070644;28;20214;-82
2020/12/16 00:32:32;;;;;;;31.30;20.48;;;7.30;99.90;;;;;;5083690;22;20235;-80
2020/12/16 00:34:58;;;;;;;27.60;19.63;;;7.30;99.90;;;;;;5057865;28;20560;-81
2020/12/16 00:37:25;;;;;;;28.85;20.10;;;7.30;99.90;;;;;;5058357;28;20286;-80
2020/12/16 00:39:51;;;;;;;27.13;18.35;;;7.30;99.90;;;;;;5057463;28;20294;-80
2020/12/16 00:42:18;;;;;;;31.38;20.23;;;7.30;99.90;;;;;;5057531;28;20223;-79
2020/12/16 00:44:44;;;;;;;26.85;18.77;;;7.30;99.90;;;;;;5058107;28;20211;-78
2020/12/16 00:47:10;;;;;;;25.45;19.92;;;7.40;99.90;;;;;;5069092;28;20241;-80
2020/12/16 00:49:37;;;;;;;23.70;17.38;;;7.40;99.90;;;;;;5068390;28;20199;-79
2020/12/16 00:52:03;;;;;;;26.92;18.15;;;7.40;99.90;;;;;;5063052;28;20310;-81
2020/12/16 00:54:30;;;;;;;23.80;18.23;;;7.40;99.90;;;;;;5058325;28;20642;-81
2020/12/16 00:56:57;;;;;;;28.40;20.00;;;7.50;99.90;;;;;;5058165;28;20289;-82
2020/12/16 00:59:23;;;;;;;30.30;19.55;;;7.50;99.90;;;;;;5058104;28;20203;-80
2020/12/16 01:01:49;;;;;;;28.17;18.85;;;7.50;99.90;;;;;;5059759;28;20233;-80
2020/12/16 01:04:15;;;;;;;26.25;19.05;;;7.50;99.90;;;;;;5061840;28;20203;-80
2020/12/16 01:06:42;;;;;;;27.15;18.80;;;7.50;99.90;;;;;;5058321;28;20273;-80
2020/12/16 01:09:08;;;;;;;27.00;19.25;;;7.50;99.90;;;;;;5057323;28;20211;-81
2020/12/16 01:11:36;;;;;;;28.45;20.35;;;7.50;99.90;;;;;;5057511;28;20225;-80
2020/12/16 01:14:03;;;;;;;31.73;19.65;;;7.60;99.90;;;;;;5058475;28;20207;-81
2020/12/16 01:16:34;;;;;;;27.73;19.00;;;7.60;99.90;;;;;;5070656;28;20574;-79
2020/12/16 01:19:01;;;;;;;28.77;19.00;;;7.50;99.90;;;;;;5066024;28;20211;-80
2020/12/16 01:21:27;;;;;;;26.70;20.02;;;7.50;99.90;;;;;;5057296;28;20229;-81
2020/12/16 01:23:53;;;;;;;28.58;21.23;;;7.60;99.90;;;;;;5056680;28;20207;-80
2020/12/16 01:26:19;;;;;;;29.00;19.90;;;7.70;99.90;;;;;;5062251;28;20203;-78
2020/12/16 01:28:47;;;;;;;28.23;19.42;;;7.70;99.90;;;;;;5067345;28;20223;-78
2020/12/16 01:31:13;;;;;;;27.33;19.65;;;7.70;99.90;;;;;;5063973;28;20641;-80
2020/12/16 01:33:39;;;;;;;30.63;19.23;;;7.80;99.90;;;;;;5058601;28;20254;-79
2020/12/16 01:36:06;;;;;;;28.73;19.45;;;7.70;99.90;;;;;;5056888;28;20191;-80
2020/12/16 01:38:32;;;;;;;33.55;20.35;;;7.80;99.90;;;;;;5056376;28;20250;-79
2020/12/16 01:41:04;;;;;;;28.08;20.02;;;7.70;99.90;;;;;;5058017;28;20217;-79
2020/12/16 01:43:35;;;;;;;25.60;19.35;;;7.80;99.90;;;;;;5056625;28;20195;-80
2020/12/16 01:46:03;;;;;;;25.02;18.55;;;7.80;99.90;;;;;;5057147;28;20192;-80
2020/12/16 01:48:29;;;;;;;26.10;19.27;;;7.90;99.90;;;;;;5056369;28;20230;-78
2020/12/16 01:50:55;;;;;;;31.23;21.40;;;7.90;99.90;;;;;;5055956;28;20203;-80
2020/12/16 01:53:23;;;;;;;24.20;18.25;;;7.80;99.90;;;;;;5055372;28;20733;-80
2020/12/16 01:55:50;;;;;;;25.65;17.58;;;7.90;99.90;;;;;;5058173;28;20211;-81
2020/12/16 01:58:21;;;;;;;28.75;19.23;;;7.90;99.90;;;;;;5055992;28;20314;-79
2020/12/16 02:00:49;;;;;;;28.67;17.88;;;7.90;99.90;;;;;;5056170;28;20191;-80
2020/12/16 02:03:21;;;;;;;23.85;17.98;;;7.90;99.90;;;;;;5059477;28;20644;-80
2020/12/16 02:05:51;;;;;;;28.13;20.00;;;8.00;99.90;;;;;;5059849;28;20193;-79
2020/12/16 02:08:19;;;;;;;26.98;19.08;;;8.00;99.90;;;;;;5060005;28;20433;-79
2020/12/16 02:10:46;;;;;;;26.10;17.45;;;8.00;99.90;;;;;;5060331;28;20272;-80
2020/12/16 02:13:12;;;;;;;26.48;19.35;;;8.00;99.90;;;;;;5059796;28;20203;-80
2020/12/16 02:15:39;;;;;;;27.85;20.65;;;7.90;99.90;;;;;;5059947;28;20205;-79
2020/12/16 02:18:05;;;;;;;27.58;18.08;;;8.00;99.90;;;;;;5060058;28;20222;-81
2020/12/16 02:20:32;;;;;;;28.70;18.77;;;8.00;99.90;;;;;;5059708;28;20617;-81
2020/12/16 02:23:01;;;;;;;26.95;19.20;;;8.00;99.90;;;;;;5059735;28;20668;-81
2020/12/16 02:25:28;;;;;;;29.15;20.80;;;8.00;99.90;;;;;;5059595;28;20586;-79
2020/12/16 02:27:54;;;;;;;27.85;19.02;;;8.00;99.90;;;;;;5059623;28;20203;-80
2020/12/16 02:30:21;;;;;;;27.10;19.88;;;8.00;99.90;;;;;;5059656;28;20214;-80
2020/12/16 02:32:47;;;;;;;28.67;18.73;;;8.00;99.90;;;;;;5062649;28;20314;-79
2020/12/16 02:35:13;;;;;;;27.10;19.73;;;8.00;99.90;;;;;;5071784;28;20203;-78
2020/12/16 02:37:40;;;;;;;25.30;19.52;;;8.10;99.90;;;;;;5070394;28;20314;-77
2020/12/16 02:40:06;;;;;;;31.95;20.05;;;8.20;99.90;;;;;;5072137;28;20213;-79
2020/12/16 02:42:34;;;;;;;27.80;19.95;;;8.10;99.90;;;;;;5069166;28;20231;-80
2020/12/16 02:45:00;;;;;;;29.67;20.15;;;8.10;99.90;;;;;;5066520;28;20224;-80
2020/12/16 02:47:27;;;;;;;24.17;18.10;;;8.10;99.90;;;;;;5061791;28;20248;-79
2020/12/16 02:49:54;;;;;;;28.52;19.20;;;8.10;99.90;;;;;;5063582;28;20445;-79
2020/12/16 02:52:20;;;;;;;27.05;18.75;;;8.10;99.90;;;;;;5064651;28;20241;-80
2020/12/16 02:54:46;;;;;;;27.30;19.10;;;8.20;99.90;;;;;;5059813;28;20578;-79
2020/12/16 02:57:13;;;;;;;30.27;19.95;;;8.10;99.90;;;;;;5059479;28;20445;-81
2020/12/16 02:59:53;;;;;;;27.63;18.95;;;8.10;99.90;;;;;;5067956;28;20278;-80
2020/12/16 03:02:20;;;;;;;28.90;19.40;;;8.10;99.90;;;;;;5060312;28;20276;-80
2020/12/16 03:04:46;;;;;;;26.70;18.80;;;8.10;99.90;;;;;;5059236;28;20979;-81
2020/12/16 03:07:12;;;;;;;28.23;19.08;;;8.10;99.90;;;;;;5059824;28;20209;-81
2020/12/16 03:09:39;;;;;;;25.97;19.20;;;8.20;99.90;;;;;;5059247;28;20203;-80
2020/12/16 03:12:05;;;;;;;29.48;18.88;;;8.10;99.90;;;;;;5059179;28;20840;-81
2020/12/16 03:14:31;;;;;;;24.85;18.42;;;8.10;99.90;;;;;;5058505;28;20203;-80
2020/12/16 03:16:58;;;;;;;26.10;19.77;;;8.10;99.90;;;;;;5068681;28;20203;-78
2020/12/16 03:19:25;;;;;;;29.50;20.17;;;8.10;99.90;;;;;;5068387;28;20481;-80
2020/12/16 03:21:53;;;;;;;28.10;19.63;;;8.10;99.90;;;;;;5067601;28;20234;-80
2020/12/16 03:24:20;;;;;;;35.42;20.60;;;8.10;99.90;;;;;;5063106;28;20207;-80
2020/12/16 03:26:47;;;;;;;33.30;20.05;;;8.10;99.90;;;;;;5059248;28;20260;-80
2020/12/16 03:29:13;;;;;;;32.83;20.52;;;8.10;99.90;;;;;;5059117;28;20199;-81
2020/12/16 03:31:40;;;;;;;32.97;21.10;;;8.00;99.90;;;;;;5059574;28;20660;-79
2020/12/16 03:34:07;;;;;;;35.05;20.95;;;8.00;99.90;;;;;;5059403;28;20214;-81
2020/12/16 03:36:34;;;;;;;31.13;22.25;;;8.00;99.90;;;;;;5067733;28;20213;-80
2020/12/16 03:39:01;;;;;;;34.50;21.23;;;8.00;99.90;;;;;;5059441;28;20273;-81
2020/12/16 03:41:28;;;;;;;35.37;22.07;;;8.00;99.90;;;;;;5059722;28;20679;-80
2020/12/16 03:43:54;;;;;;;35.30;21.85;;;8.00;99.90;;;;;;5058825;28;20449;-80
2020/12/16 03:46:21;;;;;;;36.38;23.73;;;8.00;99.90;;;;;;5058479;28;20207;-80
2020/12/16 03:48:47;;;;;;;38.63;23.00;;;8.00;99.90;;;;;;5057782;28;20286;-79
2020/12/16 03:51:15;;;;;;;35.50;22.60;;;8.00;99.90;;;;;;5058549;28;20223;-81
2020/12/16 03:53:42;;;;;;;44.30;22.90;;;8.00;99.90;;;;;;5057780;28;20476;-81
2020/12/16 03:56:10;;;;;;;35.57;23.23;;;8.00;99.90;;;;;;5057634;28;20480;-80
2020/12/16 03:58:40;;;;;;;38.43;22.27;;;8.00;99.90;;;;;;5057089;28;21008;-80
2020/12/16 04:01:07;;;;;;;37.07;22.17;;;8.00;99.90;;;;;;5057775;28;20552;-81
2020/12/16 04:03:34;;;;;;;39.70;21.60;;;8.10;99.90;;;;;;5057973;28;20445;-81
2020/12/16 04:06:00;;;;;;;36.50;19.87;;;8.10;99.90;;;;;;5057920;28;20199;-80
2020/12/16 04:08:28;;;;;;;37.13;22.33;;;8.00;99.90;;;;;;5057837;28;20536;-80
2020/12/16 04:10:54;;;;;;;40.85;23.20;;;8.10;99.90;;;;;;5057235;28;20528;-80
2020/12/16 04:13:20;;;;;;;37.20;23.40;;;8.10;99.90;;;;;;5057345;28;20376;-80
2020/12/16 04:15:47;;;;;;;35.70;23.13;;;8.10;99.90;;;;;;5056859;28;20548;-80
2020/12/16 04:18:13;;;;;;;38.00;23.30;;;8.10;99.90;;;;;;5057757;28;20223;-81
2020/12/16 04:20:39;;;;;;;36.70;22.95;;;8.10;99.90;;;;;;5058704;28;20535;-80
2020/12/16 04:23:06;;;;;;;33.87;21.50;;;8.20;99.90;;;;;;5062072;28;20659;-80
2020/12/16 04:25:34;;;;;;;31.48;21.42;;;8.20;99.90;;;;;;5063362;28;20454;-79
2020/12/16 04:28:00;;;;;;;37.70;23.58;;;8.20;99.90;;;;;;5063492;28;20618;-80
2020/12/16 04:30:28;;;;;;;39.47;23.33;;;8.20;99.90;;;;;;5062920;28;20211;-80
2020/12/16 04:32:56;;;;;;;37.20;21.73;;;8.10;99.90;;;;;;5063252;28;20237;-80
2020/12/16 04:35:23;;;;;;;37.10;25.50;;;8.10;99.90;;;;;;5061958;28;20988;-80
2020/12/16 04:37:49;;;;;;;41.80;24.13;;;8.10;99.90;;;;;;5058909;28;20487;-80
2020/12/16 04:40:16;;;;;;;40.63;26.13;;;8.10;99.90;;;;;;5058496;28;20455;-80
2020/12/16 04:42:43;;;;;;;37.30;24.60;;;8.10;99.90;;;;;;5067926;28;20542;-80
2020/12/16 04:45:11;;;;;;;44.57;23.37;;;8.10;99.90;;;;;;5071165;28;20209;-80
2020/12/16 04:47:37;;;;;;;39.57;25.40;;;8.10;99.90;;;;;;5069513;28;20832;-81
2020/12/16 04:50:05;;;;;;;37.80;23.40;;;8.10;99.90;;;;;;5061343;28;20968;-79
2020/12/16 04:52:32;;;;;;;36.80;23.00;;;8.20;99.90;;;;;;5058577;28;20470;-81
2020/12/16 04:54:59;;;;;;;38.17;23.47;;;8.30;99.90;;;;;;5061230;28;20495;-81
2020/12/16 04:57:25;;;;;;;34.77;23.07;;;8.20;99.90;;;;;;5060820;28;20798;-80
2020/12/16 04:59:55;;;;;;;34.40;21.90;;;8.20;99.90;;;;;;5072120;28;20485;-79
2020/12/16 05:02:22;;;;;;;32.03;22.70;;;8.20;99.90;;;;;;5062055;28;20466;-80
2020/12/16 05:04:48;;;;;;;38.30;23.90;;;8.20;99.90;;;;;;5062938;28;20536;-80
2020/12/16 05:07:27;;;;;;;38.43;23.70;;;8.20;99.90;;;;;;5067723;28;20285;-78
2020/12/16 05:09:54;;;;;;;37.77;23.10;;;8.20;99.90;;;;;;5066243;28;20847;-78
2020/12/16 05:12:20;;;;;;;45.07;24.47;;;8.20;99.90;;;;;;5063132;28;20474;-82
2020/12/16 05:14:47;;;;;;;41.33;23.55;;;8.30;99.90;;;;;;5057125;28;20821;-80
2020/12/16 05:17:14;;;;;;;38.47;23.60;;;8.20;99.90;;;;;;5057688;28;20213;-80
2020/12/16 05:19:41;;;;;;;41.27;23.80;;;8.20;99.90;;;;;;5055975;28;20576;-82
2020/12/16 05:22:20;;;;;;;44.53;24.63;;;8.20;99.90;;;;;;5056896;28;20473;-80
2020/12/16 05:24:49;;;;;;;42.75;25.77;;;8.20;99.90;;;;;;5055753;28;20439;-79
2020/12/16 05:27:18;;;;;;;43.65;24.73;;;8.20;99.90;;;;;;5055961;28;20213;-81
2020/12/16 05:29:45;;;;;;;43.17;23.80;;;8.20;99.90;;;;;;5057349;28;20199;-80
2020/12/16 05:32:19;;;;;;;43.90;24.95;;;8.30;99.90;;;;;;5056521;28;20476;-81
2020/12/16 05:34:46;;;;;;;50.42;24.80;;;8.20;99.90;;;;;;5056528;28;20559;-81
2020/12/16 05:37:27;;;;;;;50.92;24.45;;;8.20;99.90;;;;;;5055880;28;20607;-80
2020/12/16 05:39:55;;;;;;;48.08;29.02;;;8.30;99.90;;;;;;5055283;28;20428;-81
2020/12/16 05:42:24;;;;;;;49.53;27.27;;;8.30;99.90;;;;;;5056186;28;20388;-80
2020/12/16 05:44:51;;;;;;;49.13;26.38;;;8.30;99.90;;;;;;5057050;28;20292;-80
2020/12/16 05:47:18;;;;;;;40.80;26.17;;;8.30;99.90;;;;;;5058069;28;20207;-80
2020/12/16 05:49:45;;;;;;;45.40;25.40;;;8.30;99.90;;;;;;5059538;28;20210;-80
2020/12/16 05:52:11;;;;;;;47.65;25.48;;;8.30;99.90;;;;;;5066437;28;20707;-79
2020/12/16 05:54:38;;;;;;;49.05;25.10;;;8.30;99.90;;;;;;5059950;28;20203;-78
2020/12/16 05:57:17;;;;;;;55.15;25.85;;;8.30;99.90;;;;;;5062162;28;20286;-80
2020/12/16 06:00:00;;;;;;;48.80;25.35;;;8.30;99.90;;;;;;5064773;28;20202;-79
2020/12/16 06:02:34;;;;;;;52.75;30.83;;;8.30;99.90;;;;;;5069181;28;20234;-78
2020/12/16 06:05:01;;;;;;;43.80;26.40;;;8.30;99.90;;;;;;5072970;28;20175;-80
2020/12/16 06:07:28;;;;;;;45.55;26.23;;;8.40;99.90;;;;;;5076965;28;20210;-80
2020/12/16 06:09:56;;;;;;;43.88;25.42;;;8.40;99.90;;;;;;5074761;28;20206;-78
2020/12/16 06:12:27;;;;;;;37.83;23.60;;;8.40;99.90;;;;;;5062674;28;20223;-78
2020/12/16 06:15:04;;;;;;;46.60;26.20;;;8.40;99.90;;;;;;5057749;28;20561;-79
2020/12/16 06:17:35;;;;;;;45.47;24.10;;;8.40;99.90;;;;;;5056902;28;20236;-80
2020/12/16 06:20:01;;;;;;;48.28;26.67;;;8.40;99.90;;;;;;5056186;28;20439;-80
2020/12/16 06:22:34;;;;;;;50.23;25.80;;;8.30;99.90;;;;;;5055487;28;20276;-80
2020/12/16 06:25:04;;;;;;;44.13;25.27;;;8.40;99.90;;;;;;5054988;28;20808;-80
2020/12/16 06:27:37;;;;;;;41.63;24.97;;;8.40;99.90;;;;;;5054985;28;20194;-80
2020/12/16 06:30:06;;;;;;;43.75;26.10;;;8.40;99.90;;;;;;5055573;28;20464;-80
2020/12/16 06:32:40;;;;;;;53.47;31.97;;;8.40;99.90;;;;;;5068162;22;20548;-80
2020/12/16 06:35:12;;;;;;;45.28;26.38;;;8.40;99.90;;;;;;5055321;28;20491;-80
2020/12/16 06:37:39;;;;;;;49.72;26.02;;;8.30;99.90;;;;;;5055094;28;20209;-79
2020/12/16 06:40:05;;;;;;;50.90;26.80;;;8.40;99.90;;;;;;5055272;28;20206;-80
2020/12/16 06:42:32;;;;;;;43.53;24.10;;;8.40;99.90;;;;;;5055053;28;20480;-80
2020/12/16 06:45:13;;;;;;;41.92;24.45;;;8.40;99.90;;;;;;5054935;28;20441;-80
2020/12/16 06:47:41;;;;;;;46.25;25.13;;;8.40;99.90;;;;;;5055606;28;20203;-79
2020/12/16 06:50:18;;;;;;;44.13;24.50;;;8.40;99.90;;;;;;5058520;28;20214;-80
2020/12/16 06:52:44;;;;;;;43.20;25.70;;;8.40;99.90;;;;;;5058335;28;20225;-80
2020/12/16 06:55:11;;;;;;;42.08;25.23;;;8.40;99.90;;;;;;5058240;28;20209;-79
2020/12/16 06:57:50;;;;;;;50.40;25.77;;;8.40;99.90;;;;;;5058387;28;20256;-79
2020/12/16 07:00:19;;;;;;;45.50;25.20;;;8.50;99.90;;;;;;5059155;28;20430;-80
2020/12/16 07:02:46;;;;;;;54.67;28.17;;;8.50;99.90;;;;;;5059033;28;20476;-80
2020/12/16 07:05:37;;;;;;;42.10;27.03;;;8.50;99.90;;;;;;5058241;28;20483;-80
2020/12/16 07:08:04;;;;;;;42.70;26.43;;;8.60;99.90;;;;;;5058242;28;20579;-80
2020/12/16 07:10:50;;;;;;;46.93;25.40;;;8.50;99.90;;;;;;5057718;28;20515;-80
2020/12/16 07:13:34;;;;;;;39.40;24.97;;;8.50;99.90;;;;;;5057779;28;20464;-80
2020/12/16 07:16:03;;;;;;;43.33;23.30;;;8.50;99.90;;;;;;5057555;28;20422;-79
2020/12/16 07:18:49;;;;;;;40.40;24.70;;;8.50;99.90;;;;;;5057404;28;21043;-80
2020/12/16 07:21:35;;;;;;;54.47;25.10;;;8.60;99.90;;;;;;5057476;28;20841;-80
2020/12/16 07:24:11;;;;;;;38.27;25.17;;;8.70;99.90;;;;;;5058270;28;20517;-80
2020/12/16 07:26:47;;;;;;;36.37;22.03;;;8.70;99.90;;;;;;5058424;28;20438;-80
2020/12/16 07:29:28;;;;;;;42.67;25.35;;;8.70;99.90;;;;;;5058529;28;20400;-79
2020/12/16 07:31:59;;;;;;;42.67;27.10;;;8.70;99.90;;;;;;5056874;28;20269;-80
2020/12/16 07:34:28;;;;;;;43.90;26.97;;;8.70;99.90;;;;;;5057878;28;20487;-80
2020/12/16 07:36:56;;;;;;;41.50;23.52;;;8.70;99.90;;;;;;5058562;28;20956;-81
2020/12/16 07:39:22;;;;;;;49.53;25.40;;;8.70;99.90;;;;;;5058395;28;20392;-78
2020/12/16 07:41:49;;;;;;;43.47;25.53;;;8.70;99.90;;;;;;5070694;28;20520;-78
2020/12/16 07:44:15;;;;;;;39.33;23.77;;;8.70;99.90;;;;;;5072299;28;20445;-79
2020/12/16 07:46:42;;;;;;;37.50;23.20;;;8.70;99.90;;;;;;5072669;28;20492;-79
2020/12/16 07:49:11;;;;;;;35.87;23.80;;;8.70;99.90;;;;;;5072789;28;20533;-78
2020/12/16 07:51:38;;;;;;;34.57;22.00;;;8.70;99.90;;;;;;5071143;28;20480;-80
2020/12/16 07:54:05;;;;;;;36.10;21.23;;;8.70;99.90;;;;;;5070857;28;20517;-80
2020/12/16 07:56:32;;;;;;;35.07;22.57;;;8.80;99.90;;;;;;5069712;28;20538;-79
2020/12/16 07:59:12;;;;;;;38.93;22.40;;;8.80;99.90;;;;;;5065084;28;20477;-79
2020/12/16 08:01:39;;;;;;;43.40;25.83;;;8.80;99.90;;;;;;5060164;28;20531;-80
2020/12/16 08:04:06;;;;;;;60.30;31.60;;;8.90;99.90;;;;;;5059612;28;20452;-80
2020/12/16 08:06:32;;;;;;;49.57;28.60;;;8.90;99.90;;;;;;5057459;28;20824;-80
2020/12/16 08:08:59;;;;;;;42.70;25.37;;;8.90;99.90;;;;;;5057566;28;20483;-79
2020/12/16 08:11:27;;;;;;;81.67;43.77;;;8.90;99.90;;;;;;5057917;28;20495;-80
2020/12/16 08:14:04;;;;;;;42.87;26.20;;;9.00;99.90;;;;;;5057937;28;20511;-81
2020/12/16 08:16:31;;;;;;;40.77;24.30;;;9.10;99.90;;;;;;5057810;28;20425;-81
2020/12/16 08:18:58;;;;;;;41.40;22.97;;;9.10;99.90;;;;;;5057891;28;20492;-81
2020/12/16 08:21:25;;;;;;;37.30;24.67;;;9.10;99.90;;;;;;5057562;28;20531;-80
2020/12/16 08:23:53;;;;;;;39.93;25.57;;;9.00;99.90;;;;;;5057949;28;20460;-79
2020/12/16 08:26:21;;;;;;;43.77;25.57;;;9.00;99.90;;;;;;5059562;28;20441;-79
2020/12/16 08:28:48;;;;;;;35.20;22.77;;;9.10;99.90;;;;;;5057917;28;20499;-80
2020/12/16 08:31:18;;;;;;;37.87;23.90;;;8.90;99.90;;;;;;5058784;28;20956;-80
2020/12/16 08:33:47;;;;;;;42.77;24.27;;;8.90;99.90;;;;;;5057143;28;20511;-80
2020/12/16 08:36:18;;;;;;;43.17;26.30;;;9.00;99.90;;;;;;5057232;28;21011;-80
2020/12/16 08:38:46;;;;;;;48.60;31.70;;;8.90;99.90;;;;;;5057250;28;20436;-80
2020/12/16 08:41:27;;;;;;;42.93;27.63;;;9.00;99.90;;;;;;5057753;28;20503;-80
2020/12/16 08:43:55;;;;;;;37.97;23.70;;;9.00;99.90;;;;;;5057276;28;20434;-80
2020/12/16 08:46:24;;;;;;;37.50;24.00;;;9.00;99.90;;;;;;5057889;28;20437;-80
2020/12/16 08:48:52;;;;;;;44.13;25.13;;;8.90;99.90;;;;;;5058154;28;20592;-80
2020/12/16 08:51:20;;;;;;;46.13;29.13;;;8.90;99.90;;;;;;5058130;28;20488;-80
2020/12/16 08:53:50;;;;;;;37.60;25.50;;;8.90;99.90;;;;;;5057692;28;20545;-80
2020/12/16 08:56:26;;;;;;;39.77;26.03;;;8.90;99.90;;;;;;5056600;28;20450;-80
2020/12/16 08:59:11;;;;;;;39.60;25.10;;;9.00;99.90;;;;;;5057078;28;20556;-81
2020/12/16 09:01:39;;;;;;;44.83;25.50;;;9.00;99.90;;;;;;5057160;28;20465;-80
2020/12/16 09:04:07;;;;;;;43.37;27.17;;;9.00;99.90;;;;;;5056921;28;20450;-80
2020/12/16 09:06:34;;;;;;;43.00;27.30;;;9.00;99.90;;;;;;5056800;28;20532;-80
2020/12/16 09:09:01;;;;;;;50.77;28.67;;;9.00;99.90;;;;;;5057611;28;20448;-81
2020/12/16 09:11:27;;;;;;;47.43;25.47;;;9.10;99.90;;;;;;5056394;28;20441;-82
2020/12/16 09:13:59;;;;;;;47.03;26.77;;;9.10;99.90;;;;;;5057109;28;20532;-81
2020/12/16 09:16:27;;;;;;;38.87;26.70;;;9.10;99.90;;;;;;5057067;28;20430;-81
2020/12/16 09:18:54;;;;;;;41.90;26.03;;;9.10;99.90;;;;;;5062799;28;20993;-81
2020/12/16 09:21:32;;;;;;;42.00;27.30;;;9.20;99.90;;;;;;5056335;28;20851;-81
2020/12/16 09:23:59;;;;;;;47.00;35.03;;;9.20;99.90;;;;;;5056545;28;20460;-80
2020/12/16 09:26:37;;;;;;;41.37;26.43;;;9.20;99.90;;;;;;5055804;28;20855;-79
2020/12/16 09:29:14;;;;;;;43.77;25.47;;;9.30;99.90;;;;;;5056662;28;20447;-80
2020/12/16 09:31:42;;;;;;;53.70;33.93;;;9.30;99.90;;;;;;5056919;28;20495;-80
2020/12/16 09:34:08;;;;;;;49.03;32.10;;;9.40;99.90;;;;;;5056531;28;20444;-80
2020/12/16 09:36:34;;;;;;;50.80;30.03;;;9.40;99.90;;;;;;5056478;28;20538;-80
2020/12/16 09:39:04;;;;;;;42.07;26.43;;;9.40;99.90;;;;;;5056723;28;20538;-79
2020/12/16 09:41:45;;;;;;;45.37;28.87;;;9.40;99.90;;;;;;5056727;28;20469;-79
2020/12/16 09:44:25;;;;;;;40.87;27.20;;;9.40;99.90;;;;;;5057311;28;20430;-79
2020/12/16 09:46:53;;;;;;;43.10;26.63;;;9.40;99.90;;;;;;5058362;28;20961;-79
2020/12/16 09:49:20;;;;;;;38.97;25.53;;;9.40;99.90;;;;;;5058862;28;20508;-82
2020/12/16 09:51:46;;;;;;;63.13;36.13;;;9.50;99.90;;;;;;5057655;28;20526;-80
2020/12/16 09:54:28;;;;;;;50.53;31.43;;;9.50;99.90;;;;;;5059510;28;20416;-81
2020/12/16 09:56:54;;;;;;;42.87;27.43;;;9.50;99.90;;;;;;5058955;28;20437;-81
2020/12/16 09:59:20;;;;;;;37.63;24.27;;;9.60;99.90;;;;;;5058995;28;20955;-80
2020/12/16 10:01:49;;;;;;;42.10;26.73;;;9.60;99.90;;;;;;5059049;28;20465;-79
2020/12/16 10:04:16;;;;;;;38.30;24.27;;;9.60;99.90;;;;;;5060880;28;20449;-80
2020/12/16 10:06:42;;;;;;;44.37;23.37;;;9.70;99.90;;;;;;5059271;28;20449;-80
2020/12/16 10:09:09;;;;;;;35.10;22.80;;;9.80;99.90;;;;;;5058156;28;20471;-81
2020/12/16 10:11:37;;;;;;;39.70;24.30;;;9.70;99.90;;;;;;5057175;28;20469;-82
2020/12/16 10:14:03;;;;;;;36.67;25.27;;;9.70;99.90;;;;;;5059943;28;20452;-80
2020/12/16 10:16:31;;;;;;;40.17;27.47;;;9.70;99.90;;;;;;5059723;28;20587;-80
2020/12/16 10:18:58;;;;;;;39.07;25.40;;;9.60;99.90;;;;;;5058025;28;20444;-80
2020/12/16 10:21:25;;;;;;;39.63;25.00;;;9.70;99.90;;;;;;5058046;28;20561;-80
2020/12/16 10:23:52;;;;;;;35.83;25.33;;;9.70;99.90;;;;;;5060420;28;20437;-80
2020/12/16 10:26:19;;;;;;;38.80;26.07;;;9.70;99.90;;;;;;5060084;28;20484;-80
2020/12/16 10:28:45;;;;;;;35.10;24.47;;;9.70;99.90;;;;;;5060043;28;20976;-80
2020/12/16 10:31:11;;;;;;;35.13;24.67;;;9.70;99.90;;;;;;5059609;28;20457;-80
2020/12/16 10:33:38;;;;;;;38.07;21.93;;;9.70;99.90;;;;;;5060169;28;20556;-80
2020/12/16 10:36:04;;;;;;;34.83;20.50;;;9.70;99.90;;;;;;5059078;28;20828;-80
2020/12/16 10:38:31;;;;;;;32.70;21.70;;;9.90;99.90;;;;;;5058277;28;20476;-80
2020/12/16 10:40:57;;;;;;;38.60;23.10;;;10.00;99.90;;;;;;5059197;28;20952;-81
2020/12/16 10:43:23;;;;;;;33.20;23.87;;;9.90;99.90;;;;;;5059536;28;20571;-81
2020/12/16 10:45:50;;;;;;;33.90;22.40;;;9.90;99.90;;;;;;5059578;28;20810;-80
2020/12/16 10:48:16;;;;;;;33.83;23.30;;;9.90;99.90;;;;;;5059627;28;20775;-81
2020/12/16 10:50:42;;;;;;;33.07;21.40;;;10.00;99.90;;;;;;5059965;28;20482;-81
2020/12/16 10:53:09;;;;;;;37.70;22.43;;;10.20;99.90;;;;;;5059382;28;20484;-80
2020/12/16 10:55:36;;;;;;;31.23;21.07;;;10.00;99.90;;;;;;5059656;28;20449;-81
2020/12/16 10:58:02;;;;;;;28.80;20.03;;;10.00;99.90;;;;;;5058581;28;20449;-81
2020/12/16 11:00:30;;;;;;;37.87;22.10;;;9.80;99.90;;;;;;5060166;28;20449;-79
2020/12/16 11:02:56;;;;;;;33.60;20.67;;;9.80;99.90;;;;;;5061583;28;20461;-81
2020/12/16 11:05:22;;;;;;;32.60;23.07;;;9.80;99.90;;;;;;5059021;28;20862;-81
2020/12/16 11:07:48;;;;;;;28.33;19.10;;;9.90;99.90;;;;;;5063230;28;20445;-80
2020/12/16 11:10:15;;;;;;;32.97;21.00;;;10.00;99.90;;;;;;5071941;28;20441;-81
2020/12/16 11:12:41;;;;;;;30.80;20.47;;;9.90;99.90;;;;;;5070222;28;20465;-80
2020/12/16 11:15:07;;;;;;;36.00;24.73;;;9.90;99.90;;;;;;5069594;28;20477;-78
2020/12/16 11:17:34;;;;;;;31.97;21.27;;;9.90;99.90;;;;;;5063451;28;20453;-80
2020/12/16 11:20:01;;;;;;;36.30;21.60;;;10.00;99.90;;;;;;5063003;28;20545;-80
2020/12/16 11:22:27;;;;;;;33.23;22.37;;;9.90;99.90;;;;;;5058408;28;20479;-81
2020/12/16 11:24:53;;;;;;;30.40;20.07;;;9.80;99.90;;;;;;5058887;28;20445;-83
2020/12/16 11:27:20;;;;;;;35.77;22.17;;;9.80;99.90;;;;;;5058687;28;20452;-81
2020/12/16 11:29:49;;;;;;;33.50;23.47;;;10.00;99.90;;;;;;5058600;28;20445;-80
2020/12/16 11:32:16;;;;;;;35.17;23.70;;;10.10;99.90;;;;;;5058646;28;21005;-80
2020/12/16 11:34:43;;;;;;;32.80;22.50;;;10.10;99.90;;;;;;5057480;28;20449;-81
2020/12/16 11:37:09;;;;;;;36.83;23.33;;;9.90;99.90;;;;;;5058949;28;20445;-80
2020/12/16 11:39:36;;;;;;;34.20;22.97;;;9.80;99.90;;;;;;5058498;28;20857;-80
2020/12/16 11:42:03;;;;;;;41.87;25.60;;;9.80;99.90;;;;;;5058786;28;20544;-82
2020/12/16 11:44:30;;;;;;;34.87;21.53;;;9.70;99.90;;;;;;5058594;28;20527;-82
2020/12/16 11:46:58;;;;;;;34.23;23.60;;;9.70;99.90;;;;;;5058048;28;20454;-81
2020/12/16 11:49:27;;;;;;;38.80;23.50;;;9.70;99.90;;;;;;5058964;28;20428;-81
2020/12/16 11:51:54;;;;;;;31.43;23.77;;;9.70;99.90;;;;;;5058381;28;20579;-81
2020/12/16 11:54:22;;;;;;;35.23;21.63;;;9.80;99.90;;;;;;5058417;28;20471;-81
2020/12/16 11:56:49;;;;;;;30.10;19.67;;;9.70;99.90;;;;;;5058128;28;20958;-81
2020/12/16 11:59:16;;;;;;;32.63;19.50;;;9.60;99.90;;;;;;5058922;28;20850;-81
2020/12/16 12:01:42;;;;;;;29.80;19.70;;;9.60;99.90;;;;;;5058101;28;20476;-81
2020/12/16 12:04:09;;;;;;;35.17;19.87;;;9.80;99.90;;;;;;5057961;28;20456;-82
2020/12/16 12:06:35;;;;;;;39.43;20.80;;;9.80;99.90;;;;;;5058435;28;20468;-81
2020/12/16 12:09:06;;;;;;;30.47;20.00;;;9.80;99.90;;;;;;5057860;28;20449;-81
2020/12/16 12:11:34;;;;;;;30.57;19.47;;;9.80;99.90;;;;;;5057913;28;20465;-81
2020/12/16 12:14:00;;;;;;;28.00;18.43;;;9.80;99.90;;;;;;5056946;28;20445;-81
2020/12/16 12:16:26;;;;;;;25.47;19.10;;;9.80;99.90;;;;;;5056132;28;20449;-80
2020/12/16 12:18:53;;;;;;;28.57;18.87;;;9.80;99.90;;;;;;5058064;28;20557;-81
2020/12/16 12:21:19;;;;;;;25.17;17.20;;;9.90;99.90;;;;;;5057914;28;20451;-81
2020/12/16 12:23:45;;;;;;;24.40;18.27;;;10.00;99.90;;;;;;5057916;28;20460;-81
2020/12/16 12:26:13;;;;;;;29.60;17.40;;;9.90;99.90;;;;;;5057798;28;20981;-81
2020/12/16 12:28:39;;;;;;;27.67;17.10;;;10.00;99.90;;;;;;5058902;28;21005;-82
2020/12/16 12:31:05;;;;;;;23.63;15.90;;;10.10;99.90;;;;;;5057618;28;20424;-81
2020/12/16 12:33:31;;;;;;;33.13;23.03;;;10.20;99.90;;;;;;5081709;22;20489;-81
2020/12/16 12:35:58;;;;;;;32.93;18.80;;;10.20;99.90;;;;;;5066360;28;20441;-79
2020/12/16 12:38:25;;;;;;;26.87;18.77;;;10.10;99.90;;;;;;5071004;28;20571;-79
2020/12/16 12:40:51;;;;;;;28.77;17.10;;;10.00;99.90;;;;;;5069151;28;20459;-80